San Jose, California
Current Conditions -  °F | °C
As of 2:53 PM on Wednesday 26 Nov 2014 (Local Time) from KSJC Reporting Station
Scattered Clouds Scattered Clouds  
Wind Chill: 70°   Ceiling: Unl
Heat Index: 70°   Visibility: 10mi
Dew Point: 41°   Wind: 3mph
Humidity: 35%   Direction: 310°NW
Pressure: 30.2"   Gusts: NA
Location:  37.35°N, 121.9°W
Report Text: KSJC 262253Z 31003KT 10SM FEW080 SCT160 21/05 A3020 RMK AO2 SLP225 T02110050
Loading
Personal Weather Stations






























Interactive Weather Map New forecast layout! Learn more

10-Day Weather Forecast

Advertisements
Track Severe Weather on mobile